Time;durP1;ratioP1;P1;durP2;ratioP2;P2;SDS_P1;SDS_P2;PMS_P1;PMS_P2;Temp;Humidity;BMP_temperature;BMP_pressure;BME280_temperature;BME280_humidity;BME280_pressure;Samples;Min_cycle;Max_cycle;Signal;HPM_P1;HPM_P2
2022/05/26 00:01:25;;;;;;;5.93;1.20;;;14.10;95.20;;;;;;4959856;28;20050;-89
2022/05/26 00:03:52;;;;;;;2.22;0.80;;;14.10;95.40;;;;;;4980180;28;20035;-88
2022/05/26 00:06:21;;;;;;;1.60;0.80;;;14.00;95.60;;;;;;4958424;28;20042;-89
2022/05/26 00:08:47;;;;;;;2.60;0.90;;;14.00;95.80;;;;;;4995680;28;20045;-89
2022/05/26 00:11:17;;;;;;;1.67;1.10;;;13.90;96.00;;;;;;4981607;28;20078;-90
2022/05/26 00:13:43;;;;;;;1.33;0.77;;;13.90;96.10;;;;;;4979385;28;20034;-89
2022/05/26 00:16:10;;;;;;;2.08;0.82;;;13.90;96.30;;;;;;4980566;28;20053;-89
2022/05/26 00:18:36;;;;;;;6.18;0.60;;;13.90;96.50;;;;;;4976392;28;20023;-88
2022/05/26 00:21:02;;;;;;;1.83;0.90;;;13.80;96.50;;;;;;4994397;28;20027;-89
2022/05/26 00:23:28;;;;;;;3.45;0.95;;;13.80;96.60;;;;;;4978112;28;20095;-87
2022/05/26 00:25:54;;;;;;;2.60;0.98;;;13.90;96.70;;;;;;4995900;28;20038;-87
2022/05/26 00:28:19;;;;;;;1.63;1.00;;;13.80;96.80;;;;;;4991568;28;20027;-88
2022/05/26 00:30:45;;;;;;;1.70;1.08;;;13.80;97.00;;;;;;4976343;28;20034;-88
2022/05/26 00:33:11;;;;;;;2.90;1.00;;;13.80;97.10;;;;;;4975714;28;20030;-87
2022/05/26 00:35:40;;;;;;;1.13;0.82;;;13.80;97.30;;;;;;4975788;28;20031;-88
2022/05/26 00:38:08;;;;;;;3.17;1.00;;;13.80;97.60;;;;;;4953816;28;20392;-85
2022/05/26 00:40:35;;;;;;;2.67;0.85;;;13.70;97.70;;;;;;4977956;28;20042;-89
2022/05/26 00:43:00;;;;;;;2.55;1.00;;;13.80;97.90;;;;;;4967186;28;20042;-90
2022/05/26 00:45:36;;;;;;;3.88;0.90;;;13.70;98.10;;;;;;4985673;28;20028;-90
2022/05/26 00:48:04;;;;;;;2.03;0.90;;;13.70;98.20;;;;;;4973636;28;20033;-88
2022/05/26 00:50:32;;;;;;;3.10;0.80;;;13.70;98.30;;;;;;4989807;28;20014;-89
2022/05/26 00:53:33;;;;;;;3.22;0.70;;;13.70;98.50;;;;;;4990054;28;20042;-88
2022/05/26 00:56:14;;;;;;;4.22;1.27;;;13.70;98.70;;;;;;4968213;28;20066;-91
2022/05/26 00:58:44;;;;;;;3.83;1.33;;;13.70;99.10;;;;;;4981955;28;20046;-90
2022/05/26 01:01:11;;;;;;;2.45;1.45;;;13.70;99.70;;;;;;4972338;28;20018;-90
2022/05/26 01:03:45;;;;;;;6.47;2.17;;;13.70;99.90;;;;;;4953657;28;20027;-90
2022/05/26 01:06:24;;;;;;;5.97;2.42;;;13.80;99.90;;;;;;4982971;28;20031;-90
2022/05/26 01:08:58;;;;;;;6.53;2.33;;;13.70;99.90;;;;;;4959205;28;20125;-89
2022/05/26 01:11:27;;;;;;;4.70;2.22;;;13.70;99.90;;;;;;4972655;28;20090;-89
2022/05/26 01:14:00;;;;;;;3.97;2.15;;;13.70;99.90;;;;;;4974196;28;20086;-88
2022/05/26 01:16:54;;;;;;;6.15;2.10;;;13.60;99.90;;;;;;4953717;28;20030;-89
2022/05/26 01:19:44;;;;;;;5.30;1.38;;;13.60;99.90;;;;;;4971027;28;20057;-89
2022/05/26 01:22:24;;;;;;;3.20;1.10;;;13.60;99.90;;;;;;4986700;28;20022;-88
2022/05/26 01:25:11;;;;;;;2.50;1.10;;;13.50;99.90;;;;;;4959500;28;20026;-88
2022/05/26 01:27:37;;;;;;;2.85;1.00;;;13.50;99.90;;;;;;4968396;28;20046;-89
2022/05/26 01:30:49;;;;;;;1.55;1.00;;;13.40;99.90;;;;;;4955574;28;20042;-88
2022/05/26 01:33:27;;;;;;;1.67;1.00;;;13.40;99.90;;;;;;4961047;28;20062;-89
2022/05/26 01:36:14;;;;;;;1.60;0.80;;;13.30;99.90;;;;;;4969624;28;20050;-88
2022/05/26 01:38:55;;;;;;;3.42;1.00;;;13.30;99.90;;;;;;4959550;28;20022;-88
2022/05/26 01:41:32;;;;;;;3.55;1.20;;;13.30;99.90;;;;;;4974376;28;20048;-87
2022/05/26 01:44:36;;;;;;;3.00;0.80;;;13.20;99.90;;;;;;4974082;28;20097;-88
2022/05/26 01:47:28;;;;;;;2.05;0.85;;;13.10;99.90;;;;;;4971449;28;20027;-89
2022/05/26 01:50:19;;;;;;;1.48;0.60;;;13.00;99.90;;;;;;4975291;28;20052;-89
2022/05/26 01:52:51;;;;;;;2.58;0.73;;;13.00;99.90;;;;;;4983021;28;20099;-88
2022/05/26 01:55:30;;;;;;;1.77;0.70;;;13.00;99.90;;;;;;4974796;28;20034;-88
2022/05/26 01:58:09;;;;;;;2.40;0.90;;;13.00;99.90;;;;;;4974055;28;20505;-88
2022/05/26 02:00:36;;;;;;;2.95;0.77;;;13.00;99.90;;;;;;4970999;28;20038;-88
2022/05/26 02:03:05;;;;;;;1.98;0.80;;;13.00;99.90;;;;;;4974253;28;20061;-88
2022/05/26 02:05:41;;;;;;;1.77;0.80;;;13.00;99.90;;;;;;4956081;28;20035;-87
2022/05/26 02:08:18;;;;;;;0.95;0.63;;;13.00;99.90;;;;;;4954562;28;20035;-88
2022/05/26 02:11:15;;;;;;;1.80;1.10;;;12.90;99.90;;;;;;4972203;28;20035;-88
2022/05/26 02:14:07;;;;;;;1.10;0.70;;;12.90;99.90;;;;;;4954697;28;20395;-88
2022/05/26 02:16:58;;;;;;;2.35;0.88;;;12.90;99.90;;;;;;4971909;28;20027;-88
2022/05/26 02:19:30;;;;;;;2.63;0.70;;;12.90;99.90;;;;;;4975383;28;20038;-88
2022/05/26 02:22:31;;;;;;;1.00;0.63;;;12.90;99.90;;;;;;4962578;28;20027;-88
2022/05/26 02:25:04;;;;;;;3.25;0.60;;;12.80;99.90;;;;;;4957756;28;20114;-88
2022/05/26 02:27:31;;;;;;;2.45;0.82;;;12.80;99.90;;;;;;4974086;28;20031;-88
2022/05/26 02:30:00;;;;;;;3.60;0.73;;;12.80;99.90;;;;;;4960933;28;20122;-88
2022/05/26 02:32:45;;;;;;;3.10;0.55;;;12.80;99.90;;;;;;4978062;28;20019;-88
2022/05/26 02:35:13;;;;;;;;;;;12.70;99.90;;;;;;4962253;28;20026;-88
2022/05/26 02:37:41;;;;;;;3.50;0.88;;;12.70;99.90;;;;;;4978515;28;19910;-89
2022/05/26 02:40:08;;;;;;;1.98;0.60;;;12.70;99.90;;;;;;4975364;28;20054;-88
2022/05/26 02:42:42;;;;;;;2.17;0.73;;;12.70;99.90;;;;;;4959804;28;20753;-88
2022/05/26 02:45:09;;;;;;;2.58;0.70;;;12.70;99.90;;;;;;4978521;28;20056;-86
2022/05/26 02:48:08;;;;;;;1.13;0.55;;;12.70;99.90;;;;;;4953678;28;20050;-87
2022/05/26 02:50:55;;;;;;;2.75;0.60;;;12.70;99.90;;;;;;4937165;28;20068;-89
2022/05/26 02:53:30;;;;;;;1.45;0.80;;;12.60;99.90;;;;;;4956450;28;20121;-88
2022/05/26 02:56:30;;;;;;;2.25;0.50;;;12.60;99.90;;;;;;4974434;28;20035;-88
2022/05/26 02:59:12;;;;;;;3.83;0.70;;;12.60;99.90;;;;;;4955756;28;20031;-88
2022/05/26 03:01:48;;;;;;;0.75;0.52;;;12.60;99.90;;;;;;4978579;28;20030;-88
2022/05/26 03:04:48;;;;;;;2.53;0.85;;;12.50;99.90;;;;;;4978426;28;20514;-89
2022/05/26 03:07:22;;;;;;;1.55;0.65;;;12.50;99.90;;;;;;4956179;28;20085;-89
2022/05/26 03:09:48;;;;;;;0.60;0.50;;;12.50;99.90;;;;;;4978203;28;20097;-90
2022/05/26 03:12:29;;;;;;;0.90;0.68;;;12.50;99.90;;;;;;4987631;28;20434;-88
2022/05/26 03:14:55;;;;;;;1.33;0.80;;;12.50;99.90;;;;;;4958609;28;20087;-88
2022/05/26 03:17:22;;;;;;;0.82;0.60;;;12.40;99.90;;;;;;4974206;28;20042;-89
2022/05/26 03:19:48;;;;;;;1.48;0.70;;;12.40;99.90;;;;;;4973952;28;20031;-89
2022/05/26 03:22:15;;;;;;;1.05;0.60;;;12.40;99.90;;;;;;4962312;28;20062;-89
2022/05/26 03:24:40;;;;;;;3.22;0.80;;;12.30;99.90;;;;;;4976231;28;20035;-89
2022/05/26 03:27:06;;;;;;;1.75;0.77;;;12.30;99.90;;;;;;4975256;28;20043;-88
2022/05/26 03:29:33;;;;;;;1.23;0.65;;;12.30;99.90;;;;;;4958372;28;20027;-88
2022/05/26 03:31:58;;;;;;;2.30;0.85;;;12.30;99.90;;;;;;4962921;28;20081;-89
2022/05/26 03:42:42;;;;;;;2.53;0.73;;;12.20;99.90;;;;;;4975616;28;20665;-89
2022/05/26 03:45:09;;;;;;;0.98;0.70;;;12.20;99.90;;;;;;4973873;28;20026;-88
2022/05/26 03:47:35;;;;;;;1.08;0.60;;;12.10;99.90;;;;;;4971007;28;20070;-89
2022/05/26 03:50:01;;;;;;;2.10;0.60;;;12.20;99.90;;;;;;4960258;28;20503;-89
2022/05/26 03:52:27;;;;;;;0.93;0.60;;;12.10;99.90;;;;;;4958563;28;20023;-90
2022/05/26 03:54:52;;;;;;;2.75;0.93;;;12.00;99.90;;;;;;4961244;28;20034;-90
2022/05/26 03:57:26;;;;;;;2.72;0.60;;;12.00;99.90;;;;;;4973855;28;20038;-89
2022/05/26 03:59:52;;;;;;;1.77;0.70;;;12.00;99.90;;;;;;4955943;28;20085;-89
2022/05/26 04:02:18;;;;;;;2.45;0.70;;;12.00;99.90;;;;;;4973671;28;20023;-89
2022/05/26 04:04:44;;;;;;;1.50;0.70;;;12.00;99.90;;;;;;4955531;28;20031;-89
2022/05/26 04:07:11;;;;;;;3.40;0.90;;;12.00;99.90;;;;;;4972487;28;20034;-88
2022/05/26 04:09:37;;;;;;;1.98;0.77;;;12.10;99.90;;;;;;4971779;28;20031;-88
2022/05/26 04:12:05;;;;;;;3.58;1.10;;;12.10;99.90;;;;;;4952485;28;20041;-87
2022/05/26 04:14:31;;;;;;;1.70;0.80;;;12.10;99.90;;;;;;4975377;28;20031;-89
2022/05/26 04:16:58;;;;;;;3.05;1.17;;;12.10;99.90;;;;;;4954348;28;20026;-88
2022/05/26 04:19:24;;;;;;;0.93;0.82;;;12.10;99.90;;;;;;4955118;28;20050;-88
2022/05/26 04:24:34;;;;;;;;;;;12.30;99.90;;;;;;4975251;28;20118;-89
2022/05/26 04:26:59;;;;;;;2.38;0.93;;;12.40;99.90;;;;;;4981053;28;19993;-88
2022/05/26 04:29:25;;;;;;;2.50;1.10;;;12.50;99.90;;;;;;4974076;28;20068;-87
2022/05/26 04:31:51;;;;;;;2.95;1.20;;;12.60;99.90;;;;;;4973133;28;20519;-88
2022/05/26 04:34:18;;;;;;;1.63;1.05;;;12.70;99.90;;;;;;4972917;28;20490;-89
2022/05/26 04:36:44;;;;;;;1.77;0.90;;;12.80;99.90;;;;;;4974266;28;20058;-86
2022/05/26 04:39:10;;;;;;;2.60;0.90;;;13.00;99.90;;;;;;4955589;28;20035;-84
2022/05/26 04:41:35;;;;;;;2.85;0.80;;;13.10;99.90;;;;;;4970412;28;20070;-85
2022/05/26 04:44:01;;;;;;;5.13;1.35;;;13.20;99.90;;;;;;4970290;28;20034;-85
2022/05/26 04:46:26;;;;;;;3.17;0.82;;;13.30;99.90;;;;;;4969537;28;20034;-86
2022/05/26 04:48:52;;;;;;;3.33;1.10;;;13.50;99.90;;;;;;4971965;28;20042;-86
2022/05/26 04:51:18;;;;;;;1.90;0.80;;;13.60;99.90;;;;;;4969574;28;20034;-86
2022/05/26 04:53:44;;;;;;;3.00;0.80;;;13.80;99.90;;;;;;4970592;28;20026;-85
2022/05/26 04:56:10;;;;;;;2.00;0.68;;;14.00;99.90;;;;;;4984144;28;20030;-86
2022/05/26 04:58:36;;;;;;;3.38;0.90;;;14.10;99.90;;;;;;4973482;28;20097;-86
2022/05/26 05:01:12;;;;;;;2.42;1.13;;;14.30;99.90;;;;;;4954314;28;20027;-87
2022/05/26 05:03:37;;;;;;;2.05;0.80;;;14.60;99.90;;;;;;4964691;28;20050;-86
2022/05/26 05:06:03;;;;;;;4.47;1.55;;;14.80;99.90;;;;;;4948434;28;20023;-87
2022/05/26 05:08:28;;;;;;;4.25;1.05;;;14.90;99.90;;;;;;4953338;28;20482;-86
2022/05/26 05:10:54;;;;;;;1.88;1.10;;;15.10;99.90;;;;;;4966011;28;20464;-86
2022/05/26 05:13:20;;;;;;;2.55;1.27;;;15.30;99.90;;;;;;4967667;28;20144;-83
2022/05/26 05:16:00;;;;;;;1.75;1.02;;;15.50;99.90;;;;;;4967650;28;20038;-77
2022/05/26 05:18:26;;;;;;;1.75;0.82;;;15.60;99.90;;;;;;4971482;28;20421;-77
2022/05/26 05:20:53;;;;;;;3.40;0.85;;;15.80;99.90;;;;;;4972691;28;20027;-77
2022/05/26 05:23:19;;;;;;;1.33;1.00;;;16.00;99.90;;;;;;4970248;28;20086;-78
2022/05/26 05:25:49;;;;;;;3.55;1.20;;;16.20;99.90;;;;;;4968459;28;20035;-83
2022/05/26 05:28:25;;;;;;;3.15;1.40;;;16.30;99.80;;;;;;4953112;28;20035;-77
2022/05/26 05:30:58;;;;;;;3.58;1.00;;;16.50;99.30;;;;;;4968238;28;20050;-85
2022/05/26 05:33:29;;;;;;;4.55;1.40;;;16.70;99.00;;;;;;4969488;28;20034;-88
2022/05/26 05:36:02;;;;;;;2.58;1.02;;;16.90;98.60;;;;;;4965827;28;20117;-77
2022/05/26 05:38:28;;;;;;;5.80;0.85;;;17.10;98.20;;;;;;4968478;28;20127;-90
2022/05/26 05:40:54;;;;;;;2.90;1.02;;;17.20;98.00;;;;;;4958361;28;20113;-87
2022/05/26 05:43:20;;;;;;;3.95;1.30;;;17.40;97.50;;;;;;4970698;28;20057;-87
2022/05/26 05:45:46;;;;;;;1.80;0.90;;;17.50;96.80;;;;;;4967344;28;20031;-85
2022/05/26 05:48:12;;;;;;;3.35;0.82;;;17.60;96.40;;;;;;4957287;28;20475;-89
2022/05/26 05:50:44;;;;;;;2.17;0.80;;;17.70;96.00;;;;;;4959884;28;20031;-89
2022/05/26 05:53:09;;;;;;;1.98;0.75;;;17.90;95.80;;;;;;4966034;28;20030;-81
2022/05/26 05:55:35;;;;;;;2.97;0.80;;;18.10;95.30;;;;;;5035317;23;20042;-73
2022/05/26 05:58:01;;;;;;;3.33;0.82;;;18.20;94.90;;;;;;4971659;28;20023;-74
2022/05/26 06:00:26;;;;;;;1.58;0.68;;;18.30;94.70;;;;;;4989199;28;20022;-71
2022/05/26 06:02:52;;;;;;;3.00;0.68;;;18.40;94.30;;;;;;4982584;28;20033;-74
2022/05/26 06:05:17;;;;;;;2.28;0.88;;;18.50;93.80;;;;;;4991790;28;20023;-73
2022/05/26 06:07:43;;;;;;;1.17;0.70;;;18.60;93.80;;;;;;4991452;28;20031;-72
2022/05/26 06:10:11;;;;;;;5.18;0.95;;;18.60;93.30;;;;;;4969692;28;20479;-73
2022/05/26 06:12:38;;;;;;;1.40;0.60;;;18.70;93.00;;;;;;4992186;28;20058;-72
2022/05/26 06:15:04;;;;;;;1.65;0.55;;;18.80;93.00;;;;;;4990044;28;20062;-73
2022/05/26 06:17:30;;;;;;;2.53;0.60;;;18.90;92.50;;;;;;4991808;28;20042;-73
2022/05/26 06:19:56;;;;;;;1.55;0.52;;;18.90;92.20;;;;;;4988999;28;20023;-72
2022/05/26 06:22:22;;;;;;;1.40;0.60;;;18.90;91.70;;;;;;4986853;28;20033;-73
2022/05/26 06:24:48;;;;;;;2.05;0.60;;;19.00;91.30;;;;;;4988460;28;21048;-71
2022/05/26 06:30:04;;;;;;;2.40;0.50;;;18.90;90.70;;;;;;4982616;28;20106;-73
2022/05/26 06:38:00;;;;;;;3.40;0.70;;;18.90;90.00;;;;;;4986132;28;20038;-73
2022/05/26 06:40:28;;;;;;;1.00;0.52;;;18.90;90.10;;;;;;4982257;28;20394;-73
2022/05/26 06:42:55;;;;;;;0.63;0.55;;;18.90;89.80;;;;;;4967790;28;20061;-73
2022/05/26 06:45:22;;;;;;;1.30;0.77;;;18.90;89.90;;;;;;4991348;28;20019;-74
2022/05/26 06:47:48;;;;;;;1.48;0.40;;;19.00;90.10;;;;;;4990799;28;20499;-73
2022/05/26 06:50:15;;;;;;;1.17;0.50;;;19.10;89.20;;;;;;4990204;28;20092;-73
2022/05/26 06:52:40;;;;;;;2.42;0.90;;;19.10;88.90;;;;;;4987609;28;20034;-74
2022/05/26 06:55:09;;;;;;;2.58;0.63;;;19.10;88.60;;;;;;4991729;28;20538;-74
2022/05/26 06:57:34;;;;;;;2.50;0.50;;;19.10;87.80;;;;;;4990176;28;20099;-73
2022/05/26 07:00:00;;;;;;;3.42;0.52;;;19.10;87.60;;;;;;4989217;28;20034;-74
2022/05/26 07:02:26;;;;;;;0.98;0.52;;;19.10;87.70;;;;;;4990861;28;20391;-74
2022/05/26 07:04:52;;;;;;;1.48;0.70;;;19.10;87.80;;;;;;4991951;28;20041;-75
2022/05/26 07:07:18;;;;;;;1.67;0.52;;;19.10;87.70;;;;;;4991685;28;20039;-75
2022/05/26 07:09:44;;;;;;;3.45;0.60;;;19.10;87.20;;;;;;4988924;28;20038;-73
2022/05/26 07:12:10;;;;;;;6.30;0.80;;;19.00;86.30;;;;;;4993999;28;20049;-73
2022/05/26 07:14:36;;;;;;;1.55;0.55;;;18.90;86.10;;;;;;4995198;28;20030;-73
2022/05/26 07:17:03;;;;;;;1.50;0.50;;;18.90;86.50;;;;;;4994501;28;20026;-74
2022/05/26 07:19:33;;;;;;;2.20;0.40;;;18.90;86.20;;;;;;5000969;28;20030;-76
2022/05/26 07:21:59;;;;;;;4.95;0.60;;;18.90;85.80;;;;;;4973550;28;20045;-75
2022/05/26 07:24:25;;;;;;;1.17;0.40;;;18.90;85.60;;;;;;4990918;28;20026;-73
2022/05/26 07:26:51;;;;;;;1.63;0.77;;;18.90;85.40;;;;;;4988094;28;20030;-75
2022/05/26 07:29:18;;;;;;;2.60;0.40;;;18.90;85.10;;;;;;4990017;28;20101;-78
2022/05/26 07:31:44;;;;;;;2.17;0.55;;;19.00;84.60;;;;;;4983301;28;20034;-73
2022/05/26 07:34:10;;;;;;;1.85;0.70;;;19.00;84.60;;;;;;4976709;28;20041;-73
2022/05/26 07:42:11;;;;;;;2.40;0.60;;;19.10;84.20;;;;;;4989859;28;20037;-75
2022/05/26 07:44:39;;;;;;;3.35;0.85;;;19.20;83.80;;;;;;4985600;28;20622;-75
2022/05/26 07:47:06;;;;;;;3.33;0.68;;;19.20;80.60;;;;;;4987411;28;20045;-74
2022/05/26 07:49:38;;;;;;;2.35;0.55;;;19.20;80.30;;;;;;4980581;28;20410;-74
2022/05/26 07:52:04;;;;;;;3.92;0.70;;;19.20;80.50;;;;;;4977493;28;20035;-74
2022/05/26 07:54:30;;;;;;;2.70;0.55;;;19.30;80.90;;;;;;4975158;28;20057;-72
2022/05/26 07:56:57;;;;;;;2.28;0.60;;;19.50;81.40;;;;;;4989074;28;20557;-74
2022/05/26 07:59:23;;;;;;;0.82;0.50;;;19.60;81.30;;;;;;4983164;28;20468;-74
2022/05/26 08:01:50;;;;;;;4.00;0.95;;;19.90;80.90;;;;;;4965560;28;20041;-75
2022/05/26 08:04:16;;;;;;;2.17;0.75;;;20.10;80.40;;;;;;4989021;28;20518;-74
2022/05/26 08:06:46;;;;;;;2.00;0.50;;;20.30;79.80;;;;;;4986550;28;20030;-73
2022/05/26 08:09:14;;;;;;;2.38;0.60;;;20.30;78.90;;;;;;4985287;28;20035;-74
2022/05/26 08:11:39;;;;;;;1.80;0.65;;;20.40;79.10;;;;;;4968077;28;20422;-75
2022/05/26 08:14:05;;;;;;;2.40;0.60;;;20.60;79.10;;;;;;4985478;28;20026;-75
2022/05/26 08:16:31;;;;;;;4.03;0.60;;;20.80;78.30;;;;;;4982558;28;20138;-75
2022/05/26 08:18:57;;;;;;;1.40;0.50;;;20.90;78.20;;;;;;4990480;28;20023;-75
2022/05/26 08:21:23;;;;;;;1.10;0.50;;;21.10;77.50;;;;;;4978258;28;20121;-74
2022/05/26 08:23:49;;;;;;;0.93;0.52;;;21.20;76.90;;;;;;4987924;28;20176;-74
2022/05/26 08:26:15;;;;;;;1.63;0.70;;;21.30;76.90;;;;;;4976867;28;20026;-73
2022/05/26 08:28:42;;;;;;;2.33;0.70;;;21.60;76.60;;;;;;4980688;28;20081;-72
2022/05/26 08:31:10;;;;;;;1.35;0.60;;;21.70;75.60;;;;;;4982048;28;20022;-74
2022/05/26 08:33:37;;;;;;;3.03;0.68;;;21.70;75.80;;;;;;4980899;28;20084;-75
2022/05/26 08:36:13;;;;;;;2.00;0.65;;;21.90;76.10;;;;;;4966564;28;20023;-73
2022/05/26 08:38:40;;;;;;;2.60;0.50;;;22.00;74.70;;;;;;4981352;28;20029;-73
2022/05/26 08:41:07;;;;;;;1.48;0.88;;;22.00;75.00;;;;;;4967762;28;20089;-74
2022/05/26 08:43:38;;;;;;;1.73;0.68;;;22.10;73.70;;;;;;4984669;28;20026;-73
2022/05/26 08:46:08;;;;;;;3.03;0.60;;;22.10;73.00;;;;;;4980117;28;20035;-80
2022/05/26 08:48:48;;;;;;;1.65;0.60;;;22.00;72.90;;;;;;4968521;28;20038;-81
2022/05/26 08:51:38;;;;;;;0.85;0.50;;;22.10;73.40;;;;;;4986663;28;20100;-78
2022/05/26 08:54:06;;;;;;;2.17;1.02;;;22.10;73.60;;;;;;4949358;28;20038;-78
2022/05/26 08:56:32;;;;;;;2.42;0.60;;;22.10;73.80;;;;;;4989150;28;20026;-79
2022/05/26 08:59:11;;;;;;;2.00;0.68;;;22.10;72.10;;;;;;4988394;28;20030;-78
2022/05/26 09:01:38;;;;;;;3.33;0.40;;;22.00;72.30;;;;;;4991295;28;20026;-81
2022/05/26 09:04:04;;;;;;;1.25;0.73;;;22.00;72.00;;;;;;4987684;28;20037;-79
2022/05/26 09:12:55;;;;;;;2.40;1.20;;;22.00;72.00;;;;;;4992031;28;20034;-80
2022/05/26 09:14:51;;;;;;;1.73;0.50;;;22.30;71.10;;;;;;4985378;28;20049;-73
2022/05/26 09:17:16;;;;;;;0.95;0.40;;;22.20;70.10;;;;;;4969869;28;20031;-73
2022/05/26 09:19:42;;;;;;;2.90;0.60;;;22.10;70.50;;;;;;4985238;28;20099;-74
2022/05/26 09:22:23;;;;;;;1.52;0.43;;;22.10;70.20;;;;;;4989779;28;20084;-74
2022/05/26 09:24:49;;;;;;;0.60;0.60;;;22.10;70.40;;;;;;4965623;28;20065;-72
2022/05/26 09:27:34;;;;;;;0.57;0.50;;;22.00;70.50;;;;;;4969550;28;20023;-73
2022/05/26 09:30:22;;;;;;;2.75;0.70;;;22.10;70.70;;;;;;4991438;28;20023;-74
2022/05/26 09:32:48;;;;;;;0.80;0.43;;;22.00;70.00;;;;;;4974253;28;20046;-74
2022/05/26 09:35:20;;;;;;;1.05;0.60;;;22.00;70.30;;;;;;4990498;28;20389;-74
2022/05/26 09:37:52;;;;;;;0.52;0.50;;;21.90;70.20;;;;;;4971604;28;20129;-74
2022/05/26 09:40:52;;;;;;;0.63;0.40;;;22.00;70.00;;;;;;4967454;28;20558;-73
2022/05/26 09:43:25;;;;;;;1.55;0.50;;;22.00;69.10;;;;;;4980774;28;20054;-73
2022/05/26 09:45:57;;;;;;;0.95;0.57;;;22.10;68.80;;;;;;4966553;28;20117;-73
2022/05/26 09:48:33;;;;;;;1.00;0.50;;;22.20;68.70;;;;;;4986678;28;20019;-72
2022/05/26 09:51:14;;;;;;;1.13;0.60;;;22.20;68.40;;;;;;4970572;28;20642;-74
2022/05/26 09:53:45;;;;;;;1.30;0.63;;;22.40;68.50;;;;;;4979553;28;20038;-74
2022/05/26 09:56:25;;;;;;;1.38;0.40;;;22.40;68.40;;;;;;4991468;28;20040;-76
2022/05/26 09:58:51;;;;;;;0.75;0.32;;;22.30;69.00;;;;;;4991316;28;20482;-74
2022/05/26 10:01:28;;;;;;;2.08;0.47;;;22.40;68.70;;;;;;4990630;28;20069;-74
2022/05/26 10:04:00;;;;;;;2.28;0.68;;;22.10;68.50;;;;;;4991386;28;20465;-73
2022/05/26 10:06:37;;;;;;;2.65;0.80;;;22.10;69.00;;;;;;4990900;28;20025;-72
2022/05/26 10:09:20;;;;;;;3.92;1.15;;;22.00;69.70;;;;;;4992496;28;20034;-70
2022/05/26 10:12:06;;;;;;;2.20;0.63;;;22.00;71.10;;;;;;4992412;28;20643;-72
2022/05/26 10:14:53;;;;;;;1.70;0.50;;;22.00;70.20;;;;;;4997383;28;20026;-74
2022/05/26 10:17:40;;;;;;;2.65;0.63;;;22.00;70.70;;;;;;4970881;28;20038;-71
2022/05/26 10:20:14;;;;;;;0.60;0.50;;;22.00;71.00;;;;;;4987746;28;20026;-71
2022/05/26 10:23:11;;;;;;;4.05;0.70;;;22.10;71.40;;;;;;4989762;28;20037;-71
2022/05/26 10:25:44;;;;;;;1.02;0.68;;;22.20;71.10;;;;;;4988933;28;20054;-69
2022/05/26 10:28:15;;;;;;;1.20;0.60;;;22.30;70.90;;;;;;4986521;28;20058;-70
2022/05/26 10:30:50;;;;;;;1.67;0.73;;;22.40;70.30;;;;;;4986805;28;20118;-70
2022/05/26 10:33:21;;;;;;;1.50;0.55;;;22.50;70.10;;;;;;4972592;28;20045;-70
2022/05/26 10:35:54;;;;;;;1.58;0.70;;;22.50;69.60;;;;;;4984578;28;20054;-71
2022/05/26 10:38:32;;;;;;;1.92;0.70;;;22.60;69.60;;;;;;4983324;28;20022;-69
2022/05/26 10:41:23;;;;;;;0.93;0.50;;;22.80;69.60;;;;;;4975015;28;20026;-77
2022/05/26 10:44:17;;;;;;;0.88;0.60;;;22.70;67.40;;;;;;4996419;28;20031;-75
2022/05/26 10:46:50;;;;;;;;;;;22.90;68.10;;;;;;4988935;28;20538;-76
2022/05/26 10:49:21;;;;;;;2.10;0.60;;;22.90;67.50;;;;;;4990302;28;19980;-76
2022/05/26 10:51:56;;;;;;;1.50;0.55;;;22.90;66.40;;;;;;4989101;28;21897;-74
2022/05/26 10:54:30;;;;;;;3.40;0.63;;;22.90;66.60;;;;;;4981391;28;20038;-77
2022/05/26 10:57:02;;;;;;;0.95;0.50;;;23.00;67.50;;;;;;4992512;28;20549;-75
2022/05/26 10:59:36;;;;;;;1.08;0.52;;;23.00;66.80;;;;;;4990169;28;20132;-74
2022/05/26 11:02:17;;;;;;;;;;;22.90;66.40;;;;;;4989411;28;20018;-75
2022/05/26 11:05:06;;;;;;;1.85;0.50;;;22.90;66.70;;;;;;4989761;28;19918;-75
2022/05/26 11:07:43;;;;;;;2.30;0.75;;;22.80;67.10;;;;;;4989711;28;20023;-76
2022/05/26 11:10:42;;;;;;;3.03;0.82;;;22.80;67.00;;;;;;4993900;28;20176;-75
2022/05/26 11:13:17;;;;;;;0.88;0.70;;;22.70;67.30;;;;;;4963848;28;20047;-76
2022/05/26 11:18:43;;;;;;;0.50;0.40;;;22.50;67.60;;;;;;4992848;28;20030;-74
2022/05/26 11:21:14;;;;;;;0.80;0.43;;;22.50;67.80;;;;;;4991738;28;20030;-76
2022/05/26 11:23:41;;;;;;;0.82;0.52;;;22.40;68.10;;;;;;4992347;28;20490;-74
2022/05/26 11:26:13;;;;;;;0.45;0.38;;;22.40;67.80;;;;;;4978631;28;20440;-75
2022/05/26 11:28:47;;;;;;;2.78;0.60;;;22.30;67.50;;;;;;4977108;28;20030;-77
2022/05/26 11:37:27;;;;;;;1.20;0.70;;;22.00;68.90;;;;;;4991177;28;20041;-75
2022/05/26 11:40:13;;;;;;;2.15;0.75;;;22.00;69.00;;;;;;4988782;28;20033;-75
2022/05/26 11:42:52;;;;;;;1.83;0.60;;;22.00;68.90;;;;;;4972146;28;20113;-75
2022/05/26 11:45:21;;;;;;;1.17;0.40;;;21.90;68.90;;;;;;4975333;28;20152;-74
2022/05/26 11:47:53;;;;;;;1.00;0.50;;;22.00;69.00;;;;;;4993984;28;20023;-75
2022/05/26 11:50:28;;;;;;;1.90;0.50;;;22.10;68.90;;;;;;4988039;28;20149;-75
2022/05/26 11:52:54;;;;;;;1.00;0.60;;;22.30;67.80;;;;;;4991151;28;20026;-74
2022/05/26 11:55:31;;;;;;;1.60;0.50;;;22.40;67.70;;;;;;4983300;28;20034;-74
2022/05/26 11:58:12;;;;;;;1.02;0.55;;;22.50;67.90;;;;;;4986796;28;20027;-75
2022/05/26 12:00:43;;;;;;;1.95;0.60;;;22.50;66.80;;;;;;4990093;28;20505;-76
2022/05/26 12:03:23;;;;;;;2.95;0.88;;;22.50;66.80;;;;;;4999069;28;20030;-75
2022/05/26 12:06:11;;;;;;;1.10;0.70;;;22.50;67.10;;;;;;4987593;28;20034;-75
2022/05/26 12:08:52;;;;;;;2.88;0.80;;;22.50;67.70;;;;;;4998272;28;20085;-73
2022/05/26 12:11:20;;;;;;;2.58;0.60;;;22.70;67.80;;;;;;4991697;28;20170;-74
2022/05/26 12:13:58;;;;;;;0.77;0.50;;;22.80;67.60;;;;;;4994030;28;20421;-74
2022/05/26 12:16:27;;;;;;;2.13;0.70;;;22.70;66.70;;;;;;4988541;28;20030;-73
2022/05/26 12:19:07;;;;;;;1.55;0.60;;;22.80;67.00;;;;;;4995757;28;20222;-74
2022/05/26 12:21:46;;;;;;;2.53;0.77;;;22.60;66.80;;;;;;4980229;28;20026;-72
2022/05/26 12:24:31;;;;;;;1.15;0.60;;;22.50;67.30;;;;;;4989283;28;20390;-73
2022/05/26 12:26:57;;;;;;;2.00;0.65;;;22.70;67.20;;;;;;4983091;28;20114;-74
2022/05/26 12:29:50;;;;;;;2.17;0.63;;;22.60;67.10;;;;;;4994005;28;20109;-73
2022/05/26 12:32:24;;;;;;;2.60;0.80;;;22.60;67.20;;;;;;4969404;28;20033;-74
2022/05/26 12:35:08;;;;;;;1.08;0.60;;;22.60;67.30;;;;;;4987188;28;20803;-73
2022/05/26 12:38:05;;;;;;;1.35;0.73;;;22.40;68.10;;;;;;4984167;28;20023;-73
2022/05/26 12:40:49;;;;;;;2.25;0.80;;;22.30;68.10;;;;;;4988626;28;20085;-73
2022/05/26 12:43:34;;;;;;;1.73;0.75;;;22.30;68.30;;;;;;4990429;28;20026;-73
2022/05/26 12:46:37;;;;;;;2.33;0.50;;;22.40;68.70;;;;;;4990574;28;20509;-74
2022/05/26 12:49:12;;;;;;;2.28;0.90;;;22.50;68.50;;;;;;4989776;28;20034;-73
2022/05/26 12:51:39;;;;;;;3.08;0.85;;;22.50;68.30;;;;;;4991432;28;20525;-73
2022/05/26 12:54:14;;;;;;;2.03;0.70;;;22.40;68.70;;;;;;4991586;28;20129;-73
2022/05/26 12:56:53;;;;;;;2.05;0.70;;;22.10;69.10;;;;;;4970309;28;20038;-73
2022/05/26 12:59:26;;;;;;;2.20;0.60;;;21.90;69.20;;;;;;4986494;28;20517;-73
2022/05/26 13:01:53;;;;;;;;;;;21.70;69.00;;;;;;4983934;28;20105;-73
2022/05/26 13:04:24;;;;;;;7.93;0.90;;;21.70;69.20;;;;;;4971795;28;20627;-76
2022/05/26 13:06:52;;;;;;;10.68;1.02;;;21.70;71.30;;;;;;4976188;28;20049;-72
2022/05/26 13:09:25;;;;;;;1.83;0.77;;;21.90;69.10;;;;;;4978199;28;20061;-72
2022/05/26 13:11:57;;;;;;;2.80;0.68;;;21.90;68.80;;;;;;4976654;28;20042;-72
2022/05/26 13:14:46;;;;;;;1.88;0.82;;;22.00;68.40;;;;;;4991634;28;20030;-73
2022/05/26 13:17:13;;;;;;;2.20;0.70;;;22.10;68.20;;;;;;4979533;28;20066;-72
2022/05/26 13:19:43;;;;;;;1.90;0.88;;;22.10;68.30;;;;;;4991288;28;20046;-73
2022/05/26 13:22:31;;;;;;;2.20;0.70;;;22.10;68.50;;;;;;4987570;28;20027;-75
2022/05/26 13:25:01;;;;;;;2.70;0.60;;;22.30;68.70;;;;;;4986977;28;20029;-70
2022/05/26 13:27:46;;;;;;;2.85;0.60;;;22.40;68.80;;;;;;4997479;28;20057;-75
2022/05/26 13:33:11;;;;;;;0.75;0.65;;;22.50;68.30;;;;;;4987344;28;20037;-73
2022/05/26 13:35:49;;;;;;;1.27;0.75;;;22.60;68.30;;;;;;4992131;28;20030;-73
2022/05/26 13:38:27;;;;;;;3.03;0.90;;;22.70;68.10;;;;;;4991824;28;20033;-74
2022/05/26 13:40:53;;;;;;;1.77;0.60;;;22.80;67.80;;;;;;4988417;28;20037;-74
2022/05/26 13:43:20;;;;;;;1.77;0.70;;;22.80;67.50;;;;;;4989226;28;20031;-74
2022/05/26 13:45:45;;;;;;;2.03;0.70;;;22.90;67.40;;;;;;4991000;28;20036;-73
2022/05/26 13:48:29;;;;;;;1.75;0.75;;;23.00;67.50;;;;;;4986513;28;20105;-73
2022/05/26 13:51:03;;;;;;;1.33;0.60;;;23.10;66.50;;;;;;4985161;28;20031;-74
2022/05/26 13:53:29;;;;;;;1.02;0.80;;;23.10;66.40;;;;;;4990223;28;20483;-74
2022/05/26 13:55:57;;;;;;;1.58;0.80;;;23.10;66.60;;;;;;4990102;28;20383;-74
2022/05/26 13:58:23;;;;;;;1.65;0.85;;;23.10;66.90;;;;;;4989309;28;20025;-75